Terminal Aerodrome Forecast
Issued by NWS

Home | Current Version | Previous Version | Text Only | Print | Product List | Glossary On
Versions: 1 2 3 4 5 6 7 8 9 10 11 12 13 14 15 16 17 18 19 20
547
FTUS42 KMLB 280521
TAFLEE
TAF
KLEE 280521Z 2806/2906 34003KT P6SM FEW015 SCT120 BKN250
     FM281500 05005KT P6SM VCSH SCT025 SCT250
     FM281900 07010KT P6SM VCTS SCT035CB BKN080
      TEMPO 2820/2823 3SM TSRA BKN025CB
     FM290000 06007KT P6SM VCSH SCT025 BKN070=

USA.gov is the U.S. government's official web portal to all federal, state and local government web resources and services.